createdAt,value
2023-03-17T00:01:05.434Z,3.93
2023-03-17T00:04:11.076Z,3.87
2023-03-17T00:07:17.023Z,3.95
2023-03-17T00:10:25.613Z,3.83
2023-03-17T00:13:28.728Z,3.79
2023-03-17T00:16:34.977Z,3.87
2023-03-17T00:19:36.751Z,3.72
2023-03-17T00:22:39.876Z,3.56
2023-03-17T00:25:43.270Z,3.49
2023-03-17T00:28:45.336Z,3.34
2023-03-17T00:31:47.002Z,3.34
2023-03-17T00:34:48.685Z,3.30
2023-03-17T00:37:53.686Z,3.28
2023-03-17T00:40:55.534Z,3.33
2023-03-17T00:43:57.475Z,3.38
2023-03-17T00:46:59.599Z,3.53
2023-03-17T00:50:04.912Z,3.56
2023-03-17T00:53:10.920Z,3.61
2023-03-17T00:56:15.791Z,3.64
2023-03-17T00:59:28.918Z,3.65
2023-03-17T01:02:31.028Z,3.73
2023-03-17T01:05:34.430Z,3.89
2023-03-17T01:08:36.705Z,3.96
2023-03-17T01:11:39.411Z,3.93
2023-03-17T01:14:43.637Z,4.08
2023-03-17T01:17:47.506Z,4.03
2023-03-17T01:20:51.162Z,4.06
2023-03-17T01:23:53.634Z,4.05
2023-03-17T01:26:55.587Z,4.15
2023-03-17T01:29:57.183Z,4.35
2023-03-17T01:32:59.396Z,4.35
2023-03-17T01:36:00.994Z,4.33
2023-03-17T01:39:05.513Z,4.26
2023-03-17T01:42:07.255Z,4.13
2023-03-17T01:45:49.185Z,4.07
2023-03-17T01:49:14.610Z,3.99
2023-03-17T01:52:19.722Z,3.99
2023-03-17T01:55:21.423Z,3.93
2023-03-17T01:58:25.842Z,4.00
2023-03-17T02:01:33.744Z,4.02
2023-03-17T02:04:35.889Z,4.03
2023-03-17T02:07:38.448Z,3.95
2023-03-17T02:10:42.121Z,3.91
2023-03-17T02:13:44.784Z,3.96
2023-03-17T02:16:49.373Z,3.94
2023-03-17T02:19:51.784Z,4.00
2023-03-17T02:22:54.997Z,3.97
2023-03-17T02:25:56.878Z,3.84
2023-03-17T02:28:58.553Z,3.75
2023-03-17T02:32:00.494Z,3.68
2023-03-17T02:35:03.204Z,3.59
2023-03-17T02:38:04.922Z,3.49
2023-03-17T02:41:07.270Z,3.38
2023-03-17T02:44:09.488Z,3.28
2023-03-17T02:47:11.849Z,3.28
2023-03-17T02:50:23.005Z,3.34
2023-03-17T02:53:24.706Z,3.41
2023-03-17T02:56:26.835Z,3.53
2023-03-17T02:59:28.585Z,3.78
2023-03-17T03:02:30.235Z,3.73
2023-03-17T03:05:32.084Z,3.74
2023-03-17T03:08:33.854Z,3.82
2023-03-17T03:11:36.120Z,3.84
2023-03-17T03:14:37.938Z,3.87
2023-03-17T03:17:39.558Z,3.94
2023-03-17T03:20:44.540Z,3.88
2023-03-17T03:23:47.138Z,3.86
2023-03-17T03:26:49.076Z,3.78
2023-03-17T03:29:51.382Z,3.71
2023-03-17T03:32:53.084Z,3.66
2023-03-17T03:35:55.330Z,3.71
2023-03-17T03:38:58.028Z,3.77
2023-03-17T03:41:59.821Z,3.87
2023-03-17T03:45:02.466Z,3.94
2023-03-17T03:48:04.445Z,4.12
2023-03-17T03:51:06.697Z,3.97
2023-03-17T03:54:09.486Z,3.78
2023-03-17T03:57:11.315Z,3.72
2023-03-17T04:00:17.792Z,3.54
2023-03-17T04:03:19.609Z,3.34
2023-03-17T04:06:21.469Z,3.24
2023-03-17T04:09:23.284Z,3.23
2023-03-17T04:12:25.016Z,3.24
2023-03-17T04:15:27.111Z,3.22
2023-03-17T04:18:28.782Z,3.23
2023-03-17T04:21:30.549Z,3.10
2023-03-17T04:24:32.424Z,2.94
2023-03-17T04:27:34.785Z,3.07
2023-03-17T04:30:36.568Z,3.06
2023-03-17T04:33:38.636Z,3.08
2023-03-17T04:36:40.515Z,3.06
2023-03-17T04:39:43.397Z,3.21
2023-03-17T04:42:45.572Z,3.31
2023-03-17T04:45:47.239Z,3.46
2023-03-17T04:48:48.931Z,3.50
2023-03-17T04:51:50.813Z,3.44
2023-03-17T04:54:52.548Z,3.27
2023-03-17T04:57:54.186Z,3.15
2023-03-17T05:00:56.036Z,3.04
2023-03-17T05:03:57.664Z,2.97
2023-03-17T05:07:01.820Z,2.86
2023-03-17T05:10:03.856Z,2.83
2023-03-17T05:13:05.788Z,2.75
2023-03-17T05:16:08.041Z,2.77
2023-03-17T05:19:09.986Z,2.74
2023-03-17T05:22:11.834Z,2.60
2023-03-17T05:25:14.164Z,2.55
2023-03-17T05:28:16.047Z,2.57
2023-03-17T05:31:19.275Z,2.63
2023-03-17T05:34:21.240Z,2.75
2023-03-17T05:37:23.041Z,2.93
2023-03-17T05:40:24.906Z,2.86
2023-03-17T05:43:26.943Z,2.69
2023-03-17T05:46:28.931Z,2.72
2023-03-17T05:49:31.252Z,2.73
2023-03-17T05:52:32.854Z,2.92
2023-03-17T05:55:34.442Z,2.98
2023-03-17T05:58:36.798Z,2.90
2023-03-17T06:01:38.611Z,2.92
2023-03-17T06:04:40.956Z,2.98
2023-03-17T06:07:53.133Z,3.10
2023-03-17T06:10:56.792Z,3.10
2023-03-17T06:13:58.502Z,2.92
2023-03-17T06:17:00.295Z,2.76
2023-03-17T06:20:02.285Z,2.68
2023-03-17T06:23:06.067Z,2.66
2023-03-17T06:26:08.789Z,2.76
2023-03-17T06:29:11.862Z,2.85
2023-03-17T06:32:20.706Z,2.87
2023-03-17T06:35:23.428Z,2.97
2023-03-17T06:38:25.644Z,3.07
2023-03-17T06:41:27.542Z,3.16
2023-03-17T06:44:29.300Z,3.16
2023-03-17T06:47:31.262Z,3.29
2023-03-17T06:50:33.134Z,3.31
2023-03-17T06:53:35.094Z,3.37
2023-03-17T06:56:36.726Z,3.39
2023-03-17T06:59:39.299Z,3.40
2023-03-17T07:02:42.229Z,3.41
2023-03-17T07:05:44.120Z,3.45
2023-03-17T07:08:46.945Z,3.60
2023-03-17T07:11:48.819Z,3.58
2023-03-17T07:14:50.446Z,3.61
2023-03-17T07:17:52.180Z,3.69
2023-03-17T07:20:53.711Z,3.72
2023-03-17T07:23:55.786Z,3.80
2023-03-17T07:26:57.577Z,3.82
2023-03-17T07:30:02.253Z,3.95
2023-03-17T07:33:04.479Z,4.07
2023-03-17T07:36:07.336Z,4.22
2023-03-17T07:39:11.475Z,4.27
2023-03-17T07:42:15.899Z,4.34
2023-03-17T07:45:17.858Z,4.50
2023-03-17T07:48:19.623Z,4.69
2023-03-17T07:51:23.260Z,4.94
2023-03-17T07:54:27.027Z,5.23
2023-03-17T07:57:28.976Z,5.46
2023-03-17T08:00:31.383Z,5.64
2023-03-17T08:03:33.361Z,5.81
2023-03-17T08:06:35.524Z,5.94
2023-03-17T08:09:37.540Z,6.04
2023-03-17T08:12:40.395Z,6.14
2023-03-17T08:15:42.311Z,6.33
2023-03-17T08:18:44.084Z,6.55
2023-03-17T08:21:45.900Z,6.73
2023-03-17T08:24:47.910Z,6.89
2023-03-17T08:27:49.553Z,6.93
2023-03-17T08:30:52.893Z,7.00
2023-03-17T08:33:57.461Z,7.10
2023-03-17T08:37:02.735Z,7.22
2023-03-17T08:40:05.711Z,7.41
2023-03-17T08:43:08.010Z,7.61
2023-03-17T08:46:20.464Z,7.85
2023-03-17T08:49:23.162Z,8.02
2023-03-17T08:52:25.026Z,8.14
2023-03-17T08:55:27.477Z,8.27
2023-03-17T08:58:29.425Z,8.45
2023-03-17T09:01:32.436Z,8.64
2023-03-17T09:04:35.056Z,8.70
2023-03-17T09:07:37.276Z,8.68
2023-03-17T09:10:39.404Z,8.68
2023-03-17T09:13:41.582Z,8.72
2023-03-17T09:16:43.293Z,8.84
2023-03-17T09:19:45.211Z,8.89
2023-03-17T09:22:48.600Z,8.95
2023-03-17T09:25:51.502Z,9.11
2023-03-17T09:28:53.362Z,9.17
2023-03-17T09:31:57.136Z,9.27
2023-03-17T09:34:59.198Z,9.34
2023-03-17T09:38:01.290Z,9.48
2023-03-17T09:41:21.357Z,9.50
2023-03-17T09:44:40.555Z,9.59
2023-03-17T09:48:16.556Z,9.70
2023-03-17T09:51:19.901Z,9.77
2023-03-17T09:54:37.931Z,9.80
2023-03-17T09:57:40.775Z,9.82
2023-03-17T10:00:42.498Z,9.81
2023-03-17T10:03:45.134Z,9.80
2023-03-17T10:06:48.073Z,9.75
2023-03-17T10:10:16.940Z,9.83
2023-03-17T10:13:58.040Z,10.02
2023-03-17T10:17:18.405Z,10.13
2023-03-17T10:20:34.037Z,10.17
2023-03-17T10:23:38.016Z,10.35
2023-03-17T10:26:46.030Z,10.50
2023-03-17T10:29:48.660Z,10.61
2023-03-17T10:32:53.009Z,10.77
2023-03-17T10:35:54.730Z,10.94
2023-03-17T10:38:56.874Z,11.09
2023-03-17T10:42:08.000Z,11.26
2023-03-17T10:45:31.328Z,11.45
2023-03-17T10:48:38.934Z,11.53
2023-03-17T10:51:40.856Z,11.56
2023-03-17T10:54:48.671Z,11.58
2023-03-17T10:58:03.206Z,11.62
2023-03-17T11:01:20.188Z,11.94
2023-03-17T11:04:35.703Z,12.17
2023-03-17T11:07:40.359Z,12.29
2023-03-17T11:10:42.171Z,12.38
2023-03-17T11:13:43.984Z,12.42
2023-03-17T11:17:02.676Z,12.47
2023-03-17T11:20:07.970Z,12.75
2023-03-17T11:23:28.635Z,12.95
2023-03-17T11:27:17.119Z,13.12
2023-03-17T11:31:15.610Z,13.28
2023-03-17T11:34:31.160Z,13.34
2023-03-17T11:37:41.729Z,13.47
2023-03-17T11:40:54.340Z,13.47
2023-03-17T11:44:26.438Z,13.61
2023-03-17T11:47:45.093Z,13.89
2023-03-17T11:51:04.946Z,14.18
2023-03-17T11:54:19.154Z,14.34
2023-03-17T11:57:28.392Z,14.40
2023-03-17T12:00:33.981Z,14.41
2023-03-17T12:03:43.944Z,14.51
2023-03-17T12:07:01.736Z,14.46
2023-03-17T12:10:29.806Z,14.38
2023-03-17T12:13:54.802Z,14.39
2023-03-17T12:17:34.620Z,14.48
2023-03-17T12:20:58.070Z,14.56
2023-03-17T12:24:20.228Z,14.81
2023-03-17T12:27:44.228Z,14.96
2023-03-17T12:30:54.531Z,15.13
2023-03-17T12:34:05.401Z,15.23
2023-03-17T12:37:07.827Z,15.26
2023-03-17T12:40:17.227Z,15.32
2023-03-17T12:43:58.114Z,15.45
2023-03-17T12:47:44.020Z,15.66
2023-03-17T12:51:07.715Z,15.90
2023-03-17T12:54:27.571Z,16.02
2023-03-17T12:57:41.263Z,16.12
2023-03-17T13:00:57.721Z,16.17
2023-03-17T13:04:26.505Z,16.21
2023-03-17T13:07:52.057Z,16.25
2023-03-17T13:11:26.645Z,16.37
2023-03-17T13:14:47.686Z,16.48
2023-03-17T13:17:50.830Z,16.54
2023-03-17T13:21:11.288Z,16.61
2023-03-17T13:24:15.744Z,16.55
2023-03-17T13:27:32.869Z,16.53
2023-03-17T13:30:34.781Z,16.67
2023-03-17T13:33:43.316Z,16.73
2023-03-17T13:37:13.621Z,16.65
2023-03-17T13:40:52.339Z,16.51
2023-03-17T13:44:24.546Z,16.40
2023-03-17T13:47:43.757Z,16.38
2023-03-17T13:50:46.999Z,16.35
2023-03-17T13:53:56.691Z,16.33
2023-03-17T13:57:19.585Z,16.38
2023-03-17T14:00:33.300Z,16.44
2023-03-17T14:03:40.825Z,16.38
2023-03-17T14:06:42.668Z,16.30
2023-03-17T14:09:45.623Z,16.22
2023-03-17T14:13:21.936Z,16.12
2023-03-17T14:16:28.672Z,16.06
2023-03-17T14:19:31.090Z,16.05
2023-03-17T14:22:33.188Z,16.06
2023-03-17T14:25:37.749Z,15.97
2023-03-17T14:28:41.065Z,16.01
2023-03-17T14:31:52.906Z,15.96
2023-03-17T14:34:57.739Z,15.85
2023-03-17T14:38:00.404Z,15.64
2023-03-17T14:41:06.119Z,15.64
2023-03-17T14:44:09.139Z,15.59
2023-03-17T14:47:24.797Z,15.64
2023-03-17T14:50:36.291Z,15.66
2023-03-17T14:53:43.403Z,15.64
2023-03-17T14:57:05.079Z,15.68
2023-03-17T15:00:34.398Z,15.60
2023-03-17T15:03:40.652Z,15.54
2023-03-17T15:07:07.790Z,15.51
2023-03-17T15:10:26.412Z,15.42
2023-03-17T15:13:32.693Z,15.32
2023-03-17T15:16:36.343Z,15.24
2023-03-17T15:20:00.457Z,15.16
2023-03-17T15:23:23.522Z,15.01
2023-03-17T15:26:31.871Z,14.89
2023-03-17T15:29:34.229Z,14.77
2023-03-17T15:32:36.436Z,14.62
2023-03-17T15:35:38.332Z,14.45
2023-03-17T15:38:40.506Z,14.31
2023-03-17T15:41:42.351Z,14.17
2023-03-17T15:44:44.290Z,14.11
2023-03-17T15:47:47.296Z,14.03
2023-03-17T15:50:51.360Z,13.94
2023-03-17T15:53:53.390Z,13.85
2023-03-17T15:56:55.821Z,13.75
2023-03-17T15:59:57.672Z,13.64
2023-03-17T16:03:04.470Z,13.56
2023-03-17T16:06:14.623Z,13.48
2023-03-17T16:09:17.581Z,13.39
2023-03-17T16:12:19.429Z,13.23
2023-03-17T16:15:23.920Z,13.11
2023-03-17T16:18:37.633Z,12.98
2023-03-17T16:21:39.860Z,12.86
2023-03-17T16:24:43.929Z,12.76
2023-03-17T16:27:48.775Z,12.59
2023-03-17T16:30:52.730Z,12.47
2023-03-17T16:33:55.186Z,12.39
2023-03-17T16:36:57.091Z,12.32
2023-03-17T16:39:59.390Z,12.25
2023-03-17T16:43:10.324Z,12.13
2023-03-17T16:46:19.696Z,12.05
2023-03-17T16:49:23.670Z,11.85
2023-03-17T16:52:28.451Z,11.75
2023-03-17T16:55:30.636Z,11.64
2023-03-17T16:58:36.938Z,11.48
2023-03-17T17:01:38.699Z,11.31
2023-03-17T17:04:41.375Z,11.16
2023-03-17T17:07:43.484Z,11.04
2023-03-17T17:10:45.674Z,10.87
2023-03-17T17:13:49.295Z,10.76
2023-03-17T17:16:51.788Z,10.61
2023-03-17T17:19:53.827Z,10.44
2023-03-17T17:22:55.811Z,10.29
2023-03-17T17:25:57.893Z,10.21
2023-03-17T17:28:59.805Z,10.14
2023-03-17T17:32:01.516Z,10.06
2023-03-17T17:35:03.639Z,9.98
2023-03-17T17:38:15.498Z,9.90
2023-03-17T17:41:17.483Z,9.82
2023-03-17T17:44:19.438Z,9.72
2023-03-17T17:47:21.059Z,9.63
2023-03-17T17:50:30.459Z,9.61
2023-03-17T17:53:32.613Z,9.58
2023-03-17T17:56:36.960Z,9.56
2023-03-17T17:59:39.048Z,9.56
2023-03-17T18:02:41.004Z,9.64
2023-03-17T18:05:43.102Z,9.86
2023-03-17T18:08:45.424Z,10.39
2023-03-17T18:11:47.689Z,10.60
2023-03-17T18:14:49.698Z,10.71
2023-03-17T18:17:51.965Z,10.76
2023-03-17T18:20:54.586Z,10.75
2023-03-17T18:23:57.927Z,10.71
2023-03-17T18:26:59.641Z,10.74
2023-03-17T18:30:01.403Z,10.79
2023-03-17T18:33:18.274Z,10.81
2023-03-17T18:36:21.051Z,10.77
2023-03-17T18:39:23.412Z,10.71
2023-03-17T18:42:25.000Z,10.64
2023-03-17T18:45:29.211Z,10.63
2023-03-17T18:48:31.466Z,10.60
2023-03-17T18:51:34.083Z,10.59
2023-03-17T18:54:37.370Z,10.54
2023-03-17T18:57:39.821Z,10.47
2023-03-17T19:00:41.962Z,10.42
2023-03-17T19:03:43.945Z,10.36
2023-03-17T19:06:46.571Z,10.41
2023-03-17T19:09:48.604Z,10.59
2023-03-17T19:12:52.189Z,10.88
2023-03-17T19:15:54.249Z,10.87
2023-03-17T19:18:56.745Z,10.78
2023-03-17T19:21:58.821Z,10.71
2023-03-17T19:25:01.194Z,10.69
2023-03-17T19:28:04.219Z,10.65
2023-03-17T19:31:06.202Z,10.61
2023-03-17T19:34:09.854Z,10.62
2023-03-17T19:37:11.687Z,10.69
2023-03-17T19:40:14.335Z,10.74
2023-03-17T19:43:28.872Z,10.72
2023-03-17T19:46:38.704Z,10.61
2023-03-17T19:49:40.974Z,10.55
2023-03-17T19:52:42.927Z,10.72
2023-03-17T19:55:45.064Z,10.69
2023-03-17T19:58:47.303Z,10.55
2023-03-17T20:01:50.250Z,10.45
2023-03-17T20:04:52.128Z,10.33
2023-03-17T20:07:53.819Z,10.24
2023-03-17T20:10:56.172Z,10.06
2023-03-17T20:13:58.039Z,9.86
2023-03-17T20:16:59.865Z,9.67
2023-03-17T20:20:02.241Z,9.56
2023-03-17T20:23:03.968Z,9.48
2023-03-17T20:26:08.537Z,9.47
2023-03-17T20:29:16.315Z,9.48
2023-03-17T20:32:18.726Z,9.52
2023-03-17T20:35:21.601Z,9.55
2023-03-17T20:38:25.634Z,9.59
2023-03-17T20:41:27.747Z,9.72
2023-03-17T20:44:29.657Z,9.98
2023-03-17T20:47:31.612Z,10.11
2023-03-17T20:50:34.457Z,10.18
2023-03-17T20:53:36.313Z,10.08
2023-03-17T20:56:39.731Z,9.83
2023-03-17T20:59:41.761Z,9.63
2023-03-17T21:02:44.870Z,9.50
2023-03-17T21:05:46.918Z,9.43
2023-03-17T21:08:49.060Z,9.41
2023-03-17T21:11:50.934Z,9.43
2023-03-17T21:14:53.281Z,9.51
2023-03-17T21:17:55.352Z,9.55
2023-03-17T21:20:57.813Z,9.55
2023-03-17T21:24:00.190Z,9.54
2023-03-17T21:27:04.374Z,9.55
2023-03-17T21:30:09.855Z,9.52
2023-03-17T21:33:11.927Z,9.49
2023-03-17T21:36:14.316Z,9.50
2023-03-17T21:39:16.229Z,9.47
2023-03-17T21:42:18.084Z,9.48
2023-03-17T21:45:20.203Z,9.49
2023-03-17T21:48:21.759Z,9.54
2023-03-17T21:51:24.721Z,9.54
2023-03-17T21:54:28.664Z,9.53
2023-03-17T21:57:31.014Z,9.53
2023-03-17T22:00:42.557Z,9.55
2023-03-17T22:03:46.679Z,9.59
2023-03-17T22:06:48.578Z,9.57
2023-03-17T22:09:53.511Z,9.55
2023-03-17T22:12:55.580Z,9.57
2023-03-17T22:16:00.303Z,9.64
2023-03-17T22:19:02.299Z,9.69
2023-03-17T22:22:04.296Z,9.72
2023-03-17T22:25:06.604Z,9.75
2023-03-17T22:28:08.605Z,9.76
2023-03-17T22:31:25.865Z,9.77
2023-03-17T22:34:27.889Z,9.74
2023-03-17T22:37:29.727Z,9.70
2023-03-17T22:40:31.641Z,9.68
2023-03-17T22:43:34.617Z,9.71
2023-03-17T22:46:43.073Z,9.70
2023-03-17T22:49:44.893Z,9.67
2023-03-17T22:52:46.890Z,9.62
2023-03-17T22:55:48.898Z,9.58
2023-03-17T22:58:50.858Z,9.56
2023-03-17T23:01:52.733Z,9.53
2023-03-17T23:04:54.377Z,9.51
2023-03-17T23:07:56.181Z,9.48
2023-03-17T23:11:00.497Z,9.52
2023-03-17T23:14:02.757Z,9.54
2023-03-17T23:17:06.109Z,9.54
2023-03-17T23:20:08.552Z,9.58
2023-03-17T23:23:11.443Z,9.68
2023-03-17T23:26:13.109Z,9.81
2023-03-17T23:29:14.901Z,9.88
2023-03-17T23:32:16.960Z,10.00
2023-03-17T23:35:19.586Z,10.00
2023-03-17T23:38:21.806Z,9.94
2023-03-17T23:41:23.775Z,9.81
2023-03-17T23:44:25.898Z,9.61
2023-03-17T23:47:28.526Z,9.49
2023-03-17T23:50:31.949Z,9.26
2023-03-17T23:53:34.121Z,9.09
2023-03-17T23:56:36.314Z,8.95
2023-03-17T23:59:37.995Z,8.83
